航空気象通報

ウインドサーファーのための航空気象通報による風予報です。

3/20-3/22の航空気象通報

2017年03月20日 23時33分12秒 | TAF
羽田空港
TAF RJTT 201105Z 2012/2118 17012KT 9999 FEW030
BECMG 2100/2103 08014KT
TEMPO 2100/2109 4000 RA BR FEW005 BKN008
BECMG 2106/2109 34026G36KT
TEMPO 2115/2118 34032G46KT
日本時間20日21時-21日09時:170度から12ノットの風
09-12時:風が変化
12-15時:080度から14ノットの風
15-18時:風が変化
18時-21日03時:340度から26ノット、突風36ノット
但し、22日00-03時の間:ときどき340度から32ノット、突風46ノット

但し、21日09-18時の間:ときどき

静岡空港
TAF RJNS 201107Z 2012/2118 33005KT 9999 FEW025
TEMPO 2016/2100 4000 RA BR FEW004 BKN008
BECMG 2021/2023 04006KT
TEMPO 2100/2109 3000 SHRA BR FEW003 BKN005
BECMG 2103/2106 36010KT
BECMG 2106/2109 27016KT
日本時間20日21時-21日06時:330度から5ノットの風
06-08時:風が変化
08-12時:040度から6ノットの風
12-15時:風が変化
15時:360度から10ノットの風
15-18時:風が変化
18時-22日03時:270度から16ノットの風

但し、21日01-09時の間:ときどき
但し、21日09-18時の間:ときどき

福岡空港
TAF RJFF 201116Z 2012/2118 09006KT 7000 -SHRA FEW010 SCT015 BKN020
TEMPO 2012/2019 3000 -SHRA BR
BECMG 2019/2021 34005KT
TEMPO 2019/2023 2000 -SHRA BR FEW006 BKN008 BKN015
BECMG 2022/2100 33015KT
TEMPO 2023/2103 33015G25KT 4000 -SHRA BR
日本時間20日21時-21日04時:090度から6ノットの風
04-06時:風が変化
06-07時:340度から5ノットの風
07-09時:風が演歌
09時-22日03時:330度から15ノットの風
但し、21日08-12時の間:ときどき330度から15ノット、突風25ノット


那覇空港
TAF ROAH 201109Z 2012/2118 22013KT 9999 FEW010 SCT020
BECMG 2016/2018 34017KT
TEMPO 2016/2018 3000 SHRA BKN008 BKN015 FEW020CB
日本時間20日21時-21日01時:220度から13ノットの風
01-03時:風が変化
03時-22日03時:340度から17ノットの風

但し、21日01-03時の間:ときどき

石垣空港
TAF ROIG 201110Z 2012/2118 23006KT 9999 FEW015 SCT025
BECMG 2021/2023 03015KT
日本時間20日21時-21日06時:230度から6ノットの風
06-08時:風が変化
08時-22日03時:030度から15ノットの風


マウイのカフルイ空港
PHOG 201140Z 2012/2112 05008KT P6SM OVC030
FM201600 05011KT P6SM SCT030
FM201900 05014G20KT P6SM SCT030 SCT045
FM202100 05018G26KT P6SM SCT030 SCT045
FM210700 05011KT P6SM SCT030 AMD LTD TO VIS AND WIND
ハワイ時間20日02-06時:050度から8ノットの風

06-09時:050度から11ノットの風
09-11時:050度から14ノット、突風20ノット
11-21時:050度から18ノット、突風26ノット
21時-21日02時:050度から11ノットの風


サイパン空港
TAF PGSN 201128Z 2012/2112 07016KT P6SM VCSH FEW015 BKN025 BKN100
TEMPO 2012/2016 4SM SHRA SCT009 OVC015
FM210100 09016KT P6SM VCSH FEW018 SCT035 BKN120
マリアナ時間20日22時-21日11時:070度から16ノットの風
11-22時:090度から16ノットの風

但し、20日22時-21日02時の間:ときどき
ジャンル:
お天気
コメント   この記事についてブログを書く
この記事をはてなブックマークに追加
« 3/19-3/21の航空気象通報 | トップ | 3/26-3/28の航空気象通報 »
最近の画像もっと見る

コメントを投稿

ブログ作成者から承認されるまでコメントは反映されません。

コメント利用規約に同意の上コメント投稿を行ってください。

数字4桁を入力し、投稿ボタンを押してください。

あわせて読む

トラックバック

この記事のトラックバック  Ping-URL
ブログ作成者から承認されるまでトラックバックは反映されません。
  • 30日以上前の記事に対するトラックバックは受け取らないよう設定されております。
  • 送信元の記事内容が半角英数のみのトラックバックは受け取らないよう設定されております。
  • このブログへのリンクがない記事からのトラックバックは受け取らないよう設定されております。
  • ※ブログ管理者のみ、編集画面で設定の変更が可能です。